Kezdőlap
METAR-TAF:

METAR-TAF

Repülőterek :

Municipal_Airport

Cushing, Oklahoma, Amerikai Egyesült Államok

földrajzi szélesség: 35-56-59N, földrajzi hosszúság: 096-46-22W, magasság: 279 m

Jelenlegi meteorológiai megfigyelések

A jelentés 43 perccel ezelõtt készült, 15:55 UTC
Déli szél 11 kt széllökések: 15 kt
Hőmérséklet 31°C
Páratartalom 49%
Légköri nyomás 1018 hPa
Látótávolság: 16.1 km
Derült ég

METAR: KCUH 121555Z AUTO 19011G15KT 10SM CLR 31/19 A3005 RMK AO2 T03130194

Idő: 11:38 (16:38 UTC)


TAF: hiányzik

Meteorológiai megfigyelések és előrejelzések több, mint 4000 repülőtéren (METAR és TAF jelentéseket).

A térképen piros és sárga pontok jelzik az elérhető meteorológiai állomásokat.

Mozgassa az egeret a pont fölött, hogy megjelenjen az állomás neve.

Azután kattintson az időjárási megfigyelések és előrejelzések megtekintéséhez.

A térkép megváltoztatása: kattintson a fekete keresztel jelölt zöld gombra ráközelítéshez, a vonallal jelölt zöld gombra távolításhoz, vagy a zöld nyilakra a szomszédos térképek eléréséhez.


METAR-TAF: